Latest Weather Observations for Charleville

IDQ60801

Issued at 7:32 pm EST Sunday 26 April 2015 (issued every 30 minutes, with the page automatically refreshed every 10 minutes)

About weather observations | Map of weather stations | Latest weather observations for QLD | Other Formats
Station Details ID: 044021 Name: CHARLEVILLE AERO Lat: -26.41 Lon: 146.26 Height: 301.6 m
Data from the previous 72 hours. | See also: Recent months at Charleville
Date/Time
EST
Temp
°C
App
Temp
°C
Dew
Point
Rel
Hum
%
Delta-T
°C
Wind Press
QNH
hPa
Press
MSL
hPa
Rain
since 9 am
mm
Dir
 
Spd
km/h
Gust
km/h
Spd
kts
Gust
kts
26/07:30pm 14.6 11.2 1.9 42 5.6 S 9 11 5 6 1019.8 - 0.0
26/07:00pm 15.8 12.4 1.9 39 6.2 SSW 9 11 5 6 1019.6 - 0.0
26/06:30pm 17.3 13.8 1.2 33 7.2 SSW 9 11 5 6 1019.3 - 0.0
26/06:00pm 18.7 15.1 0.6 29 8.1 SSW 9 13 5 7 1019.0 1018.1 0.0
26/05:30pm 20.0 15.5 -0.5 25 9.1 SSW 13 19 7 10 1018.6 - 0.0
26/05:00pm 20.6 15.6 -1.3 23 9.6 S 15 20 8 11 1018.5 - 0.0
26/04:30pm 21.0 15.1 -2.1 21 10.0 SW 19 30 10 16 1018.3 - 0.0
26/04:00pm 21.0 15.0 -1.9 21 10.0 SSW 20 32 11 17 1018.2 - 0.0
26/03:30pm 21.5 15.2 -1.1 22 10.0 S 22 32 12 17 1017.9 - 0.0
26/03:00pm 20.8 14.7 -2.1 21 9.9 SSW 20 32 11 17 1018.2 1017.3 0.0
26/02:30pm 20.7 13.9 -1.7 22 9.8 WSW 24 33 13 18 1018.2 - 0.0
26/02:00pm 20.5 15.6 -0.7 24 9.4 SSW 15 30 8 16 1018.2 - 0.0
26/01:30pm 19.9 14.9 -1.0 24 9.2 SSW 15 26 8 14 1018.6 - 0.0
26/01:00pm 19.3 14.5 0.2 27 8.6 SW 15 19 8 10 1018.9 - 0.0
26/12:30pm 19.7 14.1 1.0 28 8.5 S 20 30 11 16 1019.1 - 0.0
26/12:00pm 18.3 13.2 0.6 30 7.9 SSW 17 24 9 13 1019.4 1018.5 0.0
26/11:30am 17.9 12.2 0.6 31 7.7 SSW 20 30 11 16 1019.9 - 0.0
26/11:00am 17.1 11.7 1.4 34 7.1 SW 19 28 10 15 1020.3 - 0.0
26/10:30am 17.1 10.8 1.5 35 7.0 SSE 24 26 13 14 1020.5 - 0.0
26/10:00am 16.4 10.9 1.9 37 6.5 S 20 32 11 17 1020.8 - 0.0
26/09:30am - - - - - S 20 28 11 15 - - 0.0
26/09:00am 14.8 9.9 1.7 41 5.8 SSW 17 28 9 15 1020.8 1020.0 0.0
26/08:30am 13.5 9.0 2.1 46 5.1 S 15 22 8 12 1020.4 - 0.0
26/08:00am 12.6 8.9 2.1 49 4.6 SSW 11 19 6 10 1020.1 - 0.0
26/07:30am 10.9 7.9 2.2 55 3.8 SSW 7 9 4 5 1019.7 - 0.0
26/07:00am 9.6 6.7 2.5 61 3.1 SSW 7 9 4 5 1019.4 - 0.0
26/06:30am 10.5 6.7 1.7 54 3.8 SSW 11 15 6 8 1019.0 - 0.0
26/06:00am 10.3 6.5 1.7 55 3.7 SSW 11 15 6 8 1018.7 1017.8 0.0
26/05:30am 10.8 7.1 2.3 55 3.7 SSW 11 13 6 7 1018.3 - 0.0
26/05:00am 11.4 7.2 1.6 51 4.2 SSW 13 19 7 10 1017.8 - 0.0
26/04:30am 10.5 6.7 1.9 55 3.7 SW 11 13 6 7 1017.5 - 0.0
26/04:00am 9.0 6.2 2.0 61 3.0 SSW 6 7 3 4 1017.0 - 0.0
26/03:30am 10.0 6.6 2.1 58 3.4 WSW 9 9 5 5 1016.8 - 0.0
26/03:00am 10.8 8.1 2.7 57 3.5 SW 6 9 3 5 1016.6 1015.7 0.0
26/02:30am 11.8 8.3 1.4 49 4.5 WSW 9 15 5 8 1016.5 - 0.0
26/02:00am 11.4 8.4 2.1 53 4.0 W 7 9 4 5 1016.6 - 0.0
26/01:30am 12.7 9.8 2.4 49 4.6 W 7 11 4 6 1016.6 - 0.0
26/01:00am 14.3 11.3 1.9 43 5.5 W 7 9 4 5 1016.5 - 0.0
26/12:30am 15.3 11.2 0.1 35 6.6 WSW 11 17 6 9 1016.6 - 0.0
26/12:00am 15.9 11.9 0.2 34 6.8 WSW 11 9 6 5 1016.5 1015.6 0.0
 
Date/Time
EST
Temp
°C
App
Temp
°C
Dew
Point
Rel
Hum
%
Delta-T
°C
Wind Press
QNH
hPa
Press
MSL
hPa
Rain
since 9 am
mm
Dir
 
Spd
km/h
Gust
km/h
Spd
kts
Gust
kts
25/11:30pm 15.2 11.0 -1.2 32 6.9 WSW 11 15 6 8 1016.5 - 0.0
25/11:00pm 13.9 10.2 -2.8 31 6.7 WSW 7 9 4 5 1016.6 - 0.0
25/10:30pm 12.9 8.8 -2.8 33 6.2 W 9 11 5 6 1016.5 - 0.0
25/10:00pm 13.4 9.6 -3.4 31 6.6 WSW 7 9 4 5 1016.3 - 0.0
25/09:30pm 14.9 11.1 -3.9 27 7.4 W 7 11 4 6 1016.2 - 0.0
25/09:00pm 16.6 12.3 -5.3 22 8.5 WSW 9 13 5 7 1016.0 1015.1 0.0
25/08:30pm 16.5 12.1 -5.4 22 8.5 W 9 11 5 6 1015.5 - 0.0
25/08:00pm 16.1 12.1 -2.5 28 7.7 W 9 11 5 6 1015.1 - 0.0
25/07:30pm 18.3 14.0 -5.1 20 9.3 W 9 13 5 7 1014.5 - 0.0
25/07:00pm 19.7 14.8 -6.9 16 10.4 WSW 11 17 6 9 1014.0 - 0.0
25/06:30pm 20.4 15.6 -6.0 16 10.5 WSW 11 17 6 9 1013.4 - 0.0
25/06:00pm 21.5 16.0 -5.4 16 11.0 W 15 24 8 13 1013.0 1012.1 0.0
25/05:30pm 22.5 16.2 -6.3 14 11.7 W 19 30 10 16 1012.5 - 0.0
25/05:00pm 23.3 16.1 -5.0 15 11.9 W 24 33 13 18 1012.3 - 0.0
25/04:30pm 23.8 17.2 -2.9 17 11.7 WSW 22 39 12 21 1012.0 - 0.0
25/04:00pm 23.9 16.7 -1.9 18 11.5 W 26 33 14 18 1012.0 - 0.0
25/03:30pm 24.1 17.8 -0.8 19 11.4 W 22 39 12 21 1011.9 - 0.0
25/03:00pm 24.5 17.8 -0.8 19 11.6 W 24 37 13 20 1011.9 1011.0 0.0
25/02:30pm 24.0 17.5 0.6 21 11.0 W 24 32 13 17 1012.0 - 0.0
25/02:00pm 24.3 18.6 0.4 20 11.2 W 20 32 11 17 1012.1 - 0.0
25/01:30pm 23.9 18.4 0.6 21 10.9 SW 19 28 10 15 1012.3 - 0.0
25/01:00pm 24.0 17.9 0.3 21 11.0 WNW 22 32 12 17 1012.8 - 0.0
25/12:30pm 23.0 17.1 1.8 24 10.1 W 22 30 12 16 1013.2 - 0.0
25/12:00pm 23.0 17.5 1.6 24 10.1 W 20 28 11 15 1013.6 1012.7 0.0
25/11:30am 22.4 16.9 1.9 26 9.7 W 20 32 11 17 1014.0 - 0.0
25/11:00am 22.3 16.8 2.0 26 9.6 WSW 20 32 11 17 1014.4 - 0.0
25/10:30am 22.0 16.8 2.3 27 9.4 W 19 28 10 15 1014.7 - 0.0
25/10:00am 21.4 16.5 2.3 28 9.1 SW 17 26 9 14 1014.8 - 0.0
25/09:30am 20.4 16.0 2.6 30 8.4 WSW 15 20 8 11 1014.8 - 0.0
25/09:00am 19.3 14.5 2.8 33 7.8 SW 17 30 9 16 1014.8 1013.8 0.0
25/08:30am 17.7 14.0 2.2 35 7.1 SW 11 17 6 9 1014.4 - 0.0
25/08:00am 15.8 12.9 2.8 41 6.0 WNW 7 13 4 7 1014.2 - 0.0
25/07:30am 12.5 11.1 3.5 54 4.1 CALM 0 0 0 0 1014.0 - 0.0
25/07:00am 10.2 8.7 2.8 60 3.2 CALM 0 0 0 0 1013.6 - 0.0
25/06:30am 9.4 7.8 2.5 62 3.0 CALM 0 0 0 0 1013.3 - 0.0
25/06:00am 9.6 8.0 2.6 61 3.0 CALM 0 0 0 0 1012.9 1012.0 0.0
25/05:30am 10.2 8.6 2.5 59 3.3 CALM 0 0 0 0 1012.7 - 0.0
25/05:00am 10.7 9.1 2.5 57 3.6 CALM 0 0 0 0 1012.6 - 0.0
25/04:30am 11.3 9.8 2.8 56 3.8 CALM 0 0 0 0 1012.3 - 0.0
25/04:00am 12.4 10.9 3.2 53 4.1 CALM 0 0 0 0 1012.2 - 0.0
25/03:30am 11.7 10.1 2.5 53 4.1 CALM 0 0 0 0 1012.1 - 0.0
25/03:00am 12.0 10.4 2.4 52 4.2 CALM 0 0 0 0 1012.0 1011.1 0.0
25/02:30am 12.0 10.3 2.0 50 4.4 CALM 0 0 0 0 1012.0 - 0.0
25/02:00am 12.6 10.9 1.7 47 4.8 CALM 0 0 0 0 1012.1 - 0.0
25/01:30am 13.2 11.5 1.9 46 5.0 CALM 0 0 0 0 1012.3 - 0.0
25/01:00am 12.7 11.0 2.0 48 4.7 CALM 0 0 0 0 1012.3 - 0.0
25/12:30am 12.8 11.1 1.7 47 4.9 CALM 0 0 0 0 1012.3 - 0.0
25/12:00am 12.8 11.1 1.8 47 4.8 CALM 0 0 0 0 1012.4 1011.5 0.0
 
Date/Time
EST
Temp
°C
App
Temp
°C
Dew
Point
Rel
Hum
%
Delta-T
°C
Wind Press
QNH
hPa
Press
MSL
hPa
Rain
since 9 am
mm
Dir
 
Spd
km/h
Gust
km/h
Spd
kts
Gust
kts
24/11:30pm 13.2 11.5 2.0 46 4.9 CALM 0 0 0 0 1012.3 - 0.0
24/11:00pm 14.2 12.4 1.4 42 5.6 CALM 0 0 0 0 1012.2 - 0.0
24/10:30pm 14.9 13.3 2.4 43 5.6 CALM 0 0 0 0 1012.1 - 0.0
24/10:00pm 15.3 13.8 3.2 44 5.6 CALM 0 0 0 0 1012.1 - 0.0
24/09:30pm 16.2 14.6 2.2 39 6.4 CALM 0 0 0 0 1012.0 - 0.0
24/09:01pm 17.1 15.6 3.1 39 6.5 CALM 0 0 0 0 1011.9 - 0.0
24/09:00pm 17.1 15.6 3.2 39 6.5 CALM 0 0 0 0 1011.9 1011.0 0.0
24/08:41pm 17.5 16.0 2.8 37 6.8 CALM 0 0 0 0 1011.8 - 0.0
24/08:30pm 18.0 16.5 3.1 37 7.0 CALM 0 0 0 0 1011.8 - 0.0
24/08:00pm 19.3 18.1 4.4 37 7.3 CALM 0 0 0 0 1011.6 - 0.0
24/07:30pm 20.2 18.3 2.8 31 8.3 S 2 6 1 3 1011.3 - 0.0
24/07:00pm 20.5 18.0 3.5 32 8.2 SSW 6 9 3 5 1010.7 - 0.0
24/06:30pm 21.7 19.2 1.3 26 9.5 SSW 4 7 2 4 1010.4 - 0.0
24/06:00pm 23.8 21.0 3.0 25 10.2 W 7 9 4 5 1010.2 1009.3 0.0
24/05:30pm 26.0 21.9 0.0 18 12.2 W 11 19 6 10 1009.8 - 0.0
24/05:00pm 26.9 22.8 -0.5 16 12.9 W 11 17 6 9 1009.4 - 0.0
24/04:30pm 27.2 22.3 -0.8 16 13.1 W 15 20 8 11 1009.3 - 0.0
24/04:00pm 26.9 22.3 -1.2 16 13.0 W 13 22 7 12 1009.5 - 0.0
24/03:30pm 27.3 22.0 -0.3 16 13.0 WNW 17 24 9 13 1009.7 - 0.0
24/03:00pm 26.9 21.7 -0.2 17 12.8 W 17 39 9 21 1010.0 1009.1 0.0
24/02:30pm 27.1 22.5 -1.2 15 13.1 WNW 13 22 7 12 1010.0 - 0.0
24/02:00pm 26.1 21.0 0.6 19 12.1 WNW 17 26 9 14 1010.1 - 0.0
24/01:30pm 26.3 21.3 1.1 19 12.1 SW 17 26 9 14 1010.3 - 0.0
24/01:00pm 26.1 23.3 2.3 21 11.7 NNW 6 9 3 5 1010.9 - 0.0
24/12:30pm 25.7 21.1 1.7 21 11.6 WNW 15 24 8 13 1011.7 - 0.0
24/12:00pm 25.6 20.8 2.7 22 11.3 NW 17 26 9 14 1012.3 1011.4 0.0
24/11:30am 24.4 21.6 2.9 24 10.6 SW 7 13 4 7 1012.9 - 0.0
24/11:00am 23.6 21.0 4.3 28 9.7 N 7 15 4 8 1013.3 - 0.0
24/10:30am 23.1 20.8 4.6 30 9.3 NNW 6 11 3 6 1013.8 - 0.0
24/10:00am 22.4 20.9 5.2 32 8.7 N 2 6 1 3 1013.9 - 0.0
24/09:30am 20.4 18.0 4.1 34 8.0 SSE 6 9 3 5 1014.0 - 0.0
24/09:00am 19.1 17.6 4.8 39 7.0 S 2 7 1 4 1014.1 1013.3 0.0
24/08:30am 18.2 17.2 5.7 44 6.2 CALM 0 7 0 4 1013.9 - 0.0
24/08:00am 15.3 14.4 6.2 54 4.5 CALM 0 0 0 0 1013.9 - 0.0
24/07:30am 12.9 12.1 6.6 65 3.1 CALM 0 2 0 1 1013.8 - 0.0
24/07:00am 10.5 9.1 3.5 62 3.1 CALM 0 0 0 0 1013.3 - 0.0
24/06:30am 9.0 7.6 3.7 69 2.3 CALM 0 0 0 0 1012.9 - 0.0
24/06:00am 9.3 7.9 3.3 66 2.6 CALM 0 0 0 0 1012.4 1011.5 0.0
24/05:30am 9.4 7.9 3.0 64 2.8 CALM 0 0 0 0 1012.0 - 0.0
24/05:00am 10.0 8.6 3.7 65 2.8 CALM 0 0 0 0 1011.8 - 0.0
24/04:30am 10.4 9.0 3.7 63 3.0 CALM 0 0 0 0 1012.0 - 0.0
24/04:00am 11.2 9.8 3.7 60 3.4 CALM 0 0 0 0 1011.9 - 0.0
24/03:30am 11.6 10.3 4.3 61 3.3 CALM 0 0 0 0 1011.9 - 0.0
24/03:00am 12.6 11.3 4.3 57 3.8 CALM 0 0 0 0 1011.8 1010.8 0.0
24/02:30am 12.2 10.8 3.8 56 3.8 CALM 0 0 0 0 1012.0 - 0.0
24/02:00am 12.4 11.0 3.8 55 3.9 CALM 0 0 0 0 1012.2 - 0.0
24/01:30am 12.5 11.3 4.4 58 3.7 CALM 0 0 0 0 1012.5 - 0.0
24/01:00am 12.8 11.4 3.7 54 4.2 CALM 0 0 0 0 1012.7 - 0.0
24/12:30am 12.9 11.6 4.1 55 4.1 CALM 0 0 0 0 1012.7 - 0.0
24/12:00am 12.9 11.5 3.7 53 4.2 CALM 0 0 0 0 1012.8 1011.9 0.0
 
Date/Time
EST
Temp
°C
App
Temp
°C
Dew
Point
Rel
Hum
%
Delta-T
°C
Wind Press
QNH
hPa
Press
MSL
hPa
Rain
since 9 am
mm
Dir
 
Spd
km/h
Gust
km/h
Spd
kts
Gust
kts
23/11:30pm 13.6 12.3 3.9 52 4.5 CALM 0 0 0 0 1013.2 - 0.0
23/11:00pm 14.1 12.9 4.8 53 4.4 CALM 0 0 0 0 1013.1 - 0.0
23/10:30pm 14.7 13.6 4.9 52 4.7 CALM 0 0 0 0 1013.5 - 0.0
23/10:00pm 15.2 14.0 4.8 50 5.0 CALM 0 0 0 0 1013.6 - 0.0
23/09:30pm 15.5 14.3 4.6 48 5.2 CALM 0 0 0 0 1013.7 - 0.0
23/09:00pm 15.9 14.7 4.8 47 5.3 CALM 0 0 0 0 1013.5 1012.6 0.0
23/08:30pm 16.8 15.8 5.6 47 5.5 CALM 0 0 0 0 1013.5 - 0.0
23/08:00pm 17.7 15.5 5.2 43 6.1 SW 6 7 3 4 1013.4 - 0.0

Other Formats:

Comma delimited format used in spreadsheet applications
http://www.bom.gov.au/fwo/IDQ60801/IDQ60801.94510.axf

JavaScript Object Notation format (JSON) in row-major order
http://www.bom.gov.au/fwo/IDQ60801/IDQ60801.94510.json